Halcyon — C6WB4 — position and weather

sailwx.info

Track history (hours):
 
Tides and Currents Weather Stations Pressure Air Temp Water Temp Dewpoint Dewpoint Depression Visibility Wind Speed Wind Dir Waves Ship Positions

Halcyon

Last reported at 2018-Feb-20 18:47 UTC. Time now 2018-Feb-22 18:43 UTC.
Position N 30°59' E 122°32'.

Length 148 m; draft 7.3 m.

Type: Ship. MMSI: 311033860.

Date/timePositionNaut miles runAvg speedWind from/ knotsBaromVisibWave heightAir tempDewpointWater temp
2018-Feb-20 18:47N 30°59' E 122°32'512.2
2018-Feb-20 18:22N 31°00' E 122°26'513.7
2018-Feb-20 17:59N 31°02' E 122°20'714.1
2018-Feb-20 17:30N 31°03' E 122°12'510.2
2018-Feb-20 16:59N 31°04' E 122°06'3 6.4
2018-Feb-20 16:30N 31°04' E 122°03'2 4.4
2018-Feb-20 15:59N 31°05' E 122°00'2 5.0
2018-Feb-20 15:30N 31°06' E 121°58'5 9.3
2018-Feb-20 15:00N 31°09' E 121°53'5 9.5
2018-Feb-20 14:30N 31°12' E 121°49'1 0.1
2018-Feb-20 05:09N 31°13' E 121°48'614.5
2018-Feb-20 04:44N 31°09' E 121°53'415.2
2018-Feb-20 04:28N 31°07' E 121°57'510.2
2018-Feb-20 04:00N 31°05' E 122°02'714.1
2018-Feb-20 03:30N 31°03' E 122°10'5 9.6
2018-Feb-20 03:00N 31°03' E 122°15'5 9.9
2018-Feb-20 02:30N 31°02' E 122°21'713.0
2018-Feb-20 02:00N 31°01' E 122°29'612.4
2018-Feb-20 01:30N 30°59' E 122°36'712.7
2018-Feb-20 00:59N 30°58' E 122°43'54715.2
2018-Feb-18 13:04N 32°45' E 133°14'17317.1
2018-Feb-18 02:57N 33°35' E 136°33'8914.9
2018-Feb-17 20:58N 34°07' E 138°13'3 6.3
2018-Feb-17 20:30N 34°08' E 138°16'5 5.9
2018-Feb-17 19:39N 34°10' E 138°21'1 4.5
2018-Feb-17 19:20N 34°11' E 138°23'1 4.2
2018-Feb-17 18:59N 34°12' E 138°24'2 4.3
2018-Feb-17 18:26N 34°13' E 138°27'2 4.8
2018-Feb-17 17:58N 34°14' E 138°29'5 5.0
2018-Feb-17 17:00N 34°17' E 138°34'611.1
2018-Feb-17 16:29N 34°20' E 138°40'510.8
2018-Feb-17 16:00N 34°22' E 138°46'4 6.7
2018-Feb-17 15:28N 34°23' E 138°50'2 4.7
2018-Feb-17 14:57N 34°25' E 138°52'2 4.4
2018-Feb-17 14:29N 34°26' E 138°54'2 3.8
2018-Feb-17 14:00N 34°27' E 138°56'2 4.0
2018-Feb-17 13:30N 34°28' E 138°58'2 3.8
2018-Feb-17 13:00N 34°29' E 138°60'2 3.8
2018-Feb-17 12:30N 34°30' E 139°02'3 6.8
2018-Feb-17 12:00N 34°33' E 139°04'612.7
2018-Feb-17 11:31N 34°39' E 139°07'815.4
2018-Feb-17 11:00N 34°46' E 139°11'815.1
2018-Feb-17 10:30N 34°51' E 139°18'714.7
2018-Feb-17 10:00N 34°55' E 139°26'714.8
2018-Feb-17 09:30N 34°59' E 139°33'816.2
2018-Feb-17 09:01N 35°04' E 139°40'816.1
2018-Feb-17 08:31N 35°11' E 139°46'612.3
2018-Feb-17 08:00N 35°17' E 139°45'612.6
2018-Feb-17 07:30N 35°23' E 139°42'4 7.6
2018-Feb-17 07:01N 35°27' E 139°41'0 0.4
2018-Feb-17 06:30N 35°26' E 139°41'0 0.0
2018-Feb-17 06:00N 35°26' E 139°41'0 0.0
2018-Feb-17 05:30N 35°26' E 139°41'0 0.0
2018-Feb-17 05:00N 35°26' E 139°41'0 0.0
2018-Feb-17 04:30N 35°26' E 139°41'0 0.0
2018-Feb-17 04:00N 35°26' E 139°41'0 0.0
2018-Feb-17 03:27N 35°26' E 139°41'0 0.0
2018-Feb-17 03:00N 35°26' E 139°41'0 0.0
2018-Feb-17 02:30N 35°26' E 139°41'0 0.0
2018-Feb-17 02:00N 35°26' E 139°41'0 0.0
2018-Feb-17 01:30N 35°26' E 139°41'0 0.0
2018-Feb-17 01:00N 35°26' E 139°41'0 0.0
2018-Feb-17 00:30N 35°26' E 139°41'0 0.0
2018-Feb-17 00:00N 35°26' E 139°41'0 0.0
2018-Feb-16 23:30N 35°26' E 139°41'0 0.0
2018-Feb-16 23:00N 35°26' E 139°41'0 0.0
2018-Feb-16 22:30N 35°26' E 139°41'1 1.7
2018-Feb-16 22:00N 35°27' E 139°42'2 4.2
2018-Feb-16 21:30N 35°26' E 139°44'4 7.8
2018-Feb-16 21:00N 35°28' E 139°49'4 8.2
2018-Feb-16 20:31N 35°31' E 139°51'4 8.6
2018-Feb-16 20:01N 35°35' E 139°48'1 1.2
2018-Feb-16 19:29N 35°35' E 139°48'0 0.0
2018-Feb-16 18:58N 35°35' E 139°48'0 0.0
2018-Feb-16 18:28N 35°35' E 139°48'0 0.0
2018-Feb-16 17:59N 35°35' E 139°48'0 0.0
2018-Feb-16 17:28N 35°35' E 139°48'0 0.0
2018-Feb-16 16:58N 35°35' E 139°48'0 0.0
2018-Feb-16 16:25N 35°35' E 139°48'0 0.0
2018-Feb-16 15:58N 35°35' E 139°48'0 0.1
2018-Feb-16 15:28N 35°35' E 139°48'0 0.1
2018-Feb-16 14:58N 35°35' E 139°48'0 0.0
2018-Feb-16 14:28N 35°35' E 139°48'0 0.0
2018-Feb-16 13:58N 35°35' E 139°48'0 0.0
2018-Feb-16 13:29N 35°35' E 139°48'0 0.1
2018-Feb-16 12:58N 35°35' E 139°48'0 0.0
2018-Feb-16 12:28N 35°35' E 139°48'0 0.0
2018-Feb-16 11:58N 35°35' E 139°48'0 0.1
2018-Feb-16 11:28N 35°35' E 139°48'0 0.0
2018-Feb-16 10:58N 35°35' E 139°48'0 0.0
2018-Feb-16 10:28N 35°35' E 139°48'0 0.0
2018-Feb-16 09:58N 35°35' E 139°48'0 0.1
2018-Feb-16 09:28N 35°35' E 139°48'0 0.1
2018-Feb-16 09:00N 35°35' E 139°48'2 3.9
2018-Feb-16 08:31N 35°34' E 139°49'4 8.7
2018-Feb-16 08:00N 35°30' E 139°52'612.0
2018-Feb-16 07:30N 35°25' E 139°47'612.6
2018-Feb-16 07:00N 35°20' E 139°44'612.4
2018-Feb-16 06:31N 35°14' E 139°47'612.4
2018-Feb-16 06:00N 35°08' E 139°46'612.5
2018-Feb-16 05:30N 35°02' E 139°42'612.6
2018-Feb-16 05:01N 34°58' E 139°36'815.2
2018-Feb-16 04:30N 34°54' E 139°28'918.1
2018-Feb-16 04:00N 34°49' E 139°19'1217.2
2018-Feb-16 03:19N 34°39' E 139°11'517.3
2018-Feb-16 03:00N 34°35' E 139°06'917.2
2018-Feb-16 02:30N 34°29' E 138°59'917.2
2018-Feb-16 01:58N 34°24' E 138°49'916.9
2018-Feb-16 01:27N 34°21' E 138°40'817.2
2018-Feb-16 01:00N 34°18' E 138°31'917.3
2018-Feb-16 00:30N 34°14' E 138°22'1016.9
2018-Feb-15 23:54N 34°10' E 138°11'717.0
2018-Feb-15 23:29N 34°06' E 138°03'816.3
2018-Feb-15 23:00N 34°03' E 137°54'78216.2
2018-Feb-13 22:43N 31°04' E 122°50'716.3
2018-Feb-13 22:15N 31°04' E 122°42'416.1
2018-Feb-13 21:59N 31°05' E 122°37'814.4
2018-Feb-13 21:28N 31°05' E 122°28'510.4
2018-Feb-13 21:00N 31°06' E 122°22'713.0
2018-Feb-13 20:30N 31°08' E 122°15'714.3
2018-Feb-13 20:00N 31°12' E 122°08'713.8
2018-Feb-13 19:30N 31°15' E 122°01'714.4
2018-Feb-13 19:00N 31°16' E 121°53'714.0
2018-Feb-13 18:30N 31°18' E 121°45'6 0.4
2018-Feb-13 01:57N 31°21' E 121°39'7 8.8
2018-Feb-13 01:06N 31°16' E 121°45'412.5
2018-Feb-13 00:48N 31°13' E 121°48'512.6
2018-Feb-13 00:25N 31°10' E 121°52'512.8
2018-Feb-13 00:00N 31°07' E 121°57'714.0
2018-Feb-12 23:30N 31°04' E 122°05'713.3
2018-Feb-12 23:00N 31°03' E 122°12'4 7.2
2018-Feb-12 22:30N 31°03' E 122°17'4 8.8
2018-Feb-12 22:01N 31°02' E 122°21'611.0
2018-Feb-12 21:29N 31°01' E 122°28'511.2
2018-Feb-12 21:00N 30°60' E 122°34'66813.5
2018-Feb-10 19:36N 33°17' E 135°26'  
Track history (hours):
 
Tides and Currents Weather Stations Pressure Air Temp Water Temp Dewpoint Dewpoint Depression Visibility Wind Speed Wind Dir Waves Ship Positions

Halcyon

Last reported at 2018-Feb-20 18:47 UTC. Time now 2018-Feb-22 18:43 UTC.
Position N 30°59' E 122°32'.

Length 148 m; draft 7.3 m.

Type: Ship. MMSI: 311033860.

Date/timePositionNaut miles runAvg speedWind from/ knotsBaromVisibWave heightAir tempDewpointWater temp
2018-Feb-20 18:47N 30°59' E 122°32'512.2
2018-Feb-20 18:22N 31°00' E 122°26'513.7
2018-Feb-20 17:59N 31°02' E 122°20'714.1
2018-Feb-20 17:30N 31°03' E 122°12'510.2
2018-Feb-20 16:59N 31°04' E 122°06'3 6.4
2018-Feb-20 16:30N 31°04' E 122°03'2 4.4
2018-Feb-20 15:59N 31°05' E 122°00'2 5.0
2018-Feb-20 15:30N 31°06' E 121°58'5 9.3
2018-Feb-20 15:00N 31°09' E 121°53'5 9.5
2018-Feb-20 14:30N 31°12' E 121°49'1 0.1
2018-Feb-20 05:09N 31°13' E 121°48'614.5
2018-Feb-20 04:44N 31°09' E 121°53'415.2
2018-Feb-20 04:28N 31°07' E 121°57'510.2
2018-Feb-20 04:00N 31°05' E 122°02'714.1
2018-Feb-20 03:30N 31°03' E 122°10'5 9.6
2018-Feb-20 03:00N 31°03' E 122°15'5 9.9
2018-Feb-20 02:30N 31°02' E 122°21'713.0
2018-Feb-20 02:00N 31°01' E 122°29'612.4
2018-Feb-20 01:30N 30°59' E 122°36'712.7
2018-Feb-20 00:59N 30°58' E 122°43'54715.2
2018-Feb-18 13:04N 32°45' E 133°14'17317.1
2018-Feb-18 02:57N 33°35' E 136°33'8914.9
2018-Feb-17 20:58N 34°07' E 138°13'3 6.3
2018-Feb-17 20:30N 34°08' E 138°16'5 5.9
2018-Feb-17 19:39N 34°10' E 138°21'1 4.5
2018-Feb-17 19:20N 34°11' E 138°23'1 4.2
2018-Feb-17 18:59N 34°12' E 138°24'2 4.3
2018-Feb-17 18:26N 34°13' E 138°27'2 4.8
2018-Feb-17 17:58N 34°14' E 138°29'5 5.0
2018-Feb-17 17:00N 34°17' E 138°34'611.1
2018-Feb-17 16:29N 34°20' E 138°40'510.8
2018-Feb-17 16:00N 34°22' E 138°46'4 6.7
2018-Feb-17 15:28N 34°23' E 138°50'2 4.7
2018-Feb-17 14:57N 34°25' E 138°52'2 4.4
2018-Feb-17 14:29N 34°26' E 138°54'2 3.8
2018-Feb-17 14:00N 34°27' E 138°56'2 4.0
2018-Feb-17 13:30N 34°28' E 138°58'2 3.8
2018-Feb-17 13:00N 34°29' E 138°60'2 3.8
2018-Feb-17 12:30N 34°30' E 139°02'3 6.8
2018-Feb-17 12:00N 34°33' E 139°04'612.7
2018-Feb-17 11:31N 34°39' E 139°07'815.4
2018-Feb-17 11:00N 34°46' E 139°11'815.1
2018-Feb-17 10:30N 34°51' E 139°18'714.7
2018-Feb-17 10:00N 34°55' E 139°26'714.8
2018-Feb-17 09:30N 34°59' E 139°33'816.2
2018-Feb-17 09:01N 35°04' E 139°40'816.1
2018-Feb-17 08:31N 35°11' E 139°46'612.3
2018-Feb-17 08:00N 35°17' E 139°45'612.6
2018-Feb-17 07:30N 35°23' E 139°42'4 7.6
2018-Feb-17 07:01N 35°27' E 139°41'0 0.4
2018-Feb-17 06:30N 35°26' E 139°41'0 0.0
2018-Feb-17 06:00N 35°26' E 139°41'0 0.0
2018-Feb-17 05:30N 35°26' E 139°41'0 0.0
2018-Feb-17 05:00N 35°26' E 139°41'0 0.0
2018-Feb-17 04:30N 35°26' E 139°41'0 0.0
2018-Feb-17 04:00N 35°26' E 139°41'0 0.0
2018-Feb-17 03:27N 35°26' E 139°41'0 0.0
2018-Feb-17 03:00N 35°26' E 139°41'0 0.0
2018-Feb-17 02:30N 35°26' E 139°41'0 0.0
2018-Feb-17 02:00N 35°26' E 139°41'0 0.0
2018-Feb-17 01:30N 35°26' E 139°41'0 0.0
2018-Feb-17 01:00N 35°26' E 139°41'0 0.0
2018-Feb-17 00:30N 35°26' E 139°41'0 0.0
2018-Feb-17 00:00N 35°26' E 139°41'0 0.0
2018-Feb-16 23:30N 35°26' E 139°41'0 0.0
2018-Feb-16 23:00N 35°26' E 139°41'0 0.0
2018-Feb-16 22:30N 35°26' E 139°41'1 1.7
2018-Feb-16 22:00N 35°27' E 139°42'2 4.2
2018-Feb-16 21:30N 35°26' E 139°44'4 7.8
2018-Feb-16 21:00N 35°28' E 139°49'4 8.2
2018-Feb-16 20:31N 35°31' E 139°51'4 8.6
2018-Feb-16 20:01N 35°35' E 139°48'1 1.2
2018-Feb-16 19:29N 35°35' E 139°48'0 0.0
2018-Feb-16 18:58N 35°35' E 139°48'0 0.0
2018-Feb-16 18:28N 35°35' E 139°48'0 0.0
2018-Feb-16 17:59N 35°35' E 139°48'0 0.0
2018-Feb-16 17:28N 35°35' E 139°48'0 0.0
2018-Feb-16 16:58N 35°35' E 139°48'0 0.0
2018-Feb-16 16:25N 35°35' E 139°48'0 0.0
2018-Feb-16 15:58N 35°35' E 139°48'0 0.1
2018-Feb-16 15:28N 35°35' E 139°48'0 0.1
2018-Feb-16 14:58N 35°35' E 139°48'0 0.0
2018-Feb-16 14:28N 35°35' E 139°48'0 0.0
2018-Feb-16 13:58N 35°35' E 139°48'0 0.0
2018-Feb-16 13:29N 35°35' E 139°48'0 0.1
2018-Feb-16 12:58N 35°35' E 139°48'0 0.0
2018-Feb-16 12:28N 35°35' E 139°48'0 0.0
2018-Feb-16 11:58N 35°35' E 139°48'0 0.1
2018-Feb-16 11:28N 35°35' E 139°48'0 0.0
2018-Feb-16 10:58N 35°35' E 139°48'0 0.0
2018-Feb-16 10:28N 35°35' E 139°48'0 0.0
2018-Feb-16 09:58N 35°35' E 139°48'0 0.1
2018-Feb-16 09:28N 35°35' E 139°48'0 0.1
2018-Feb-16 09:00N 35°35' E 139°48'2 3.9
2018-Feb-16 08:31N 35°34' E 139°49'4 8.7
2018-Feb-16 08:00N 35°30' E 139°52'612.0
2018-Feb-16 07:30N 35°25' E 139°47'612.6
2018-Feb-16 07:00N 35°20' E 139°44'612.4
2018-Feb-16 06:31N 35°14' E 139°47'612.4
2018-Feb-16 06:00N 35°08' E 139°46'612.5
2018-Feb-16 05:30N 35°02' E 139°42'612.6
2018-Feb-16 05:01N 34°58' E 139°36'815.2
2018-Feb-16 04:30N 34°54' E 139°28'918.1
2018-Feb-16 04:00N 34°49' E 139°19'1217.2
2018-Feb-16 03:19N 34°39' E 139°11'517.3
2018-Feb-16 03:00N 34°35' E 139°06'917.2
2018-Feb-16 02:30N 34°29' E 138°59'917.2
2018-Feb-16 01:58N 34°24' E 138°49'916.9
2018-Feb-16 01:27N 34°21' E 138°40'817.2
2018-Feb-16 01:00N 34°18' E 138°31'917.3
2018-Feb-16 00:30N 34°14' E 138°22'1016.9
2018-Feb-15 23:54N 34°10' E 138°11'717.0
2018-Feb-15 23:29N 34°06' E 138°03'816.3
2018-Feb-15 23:00N 34°03' E 137°54'78216.2
2018-Feb-13 22:43N 31°04' E 122°50'716.3
2018-Feb-13 22:15N 31°04' E 122°42'416.1
2018-Feb-13 21:59N 31°05' E 122°37'814.4
2018-Feb-13 21:28N 31°05' E 122°28'510.4
2018-Feb-13 21:00N 31°06' E 122°22'713.0
2018-Feb-13 20:30N 31°08' E 122°15'714.3
2018-Feb-13 20:00N 31°12' E 122°08'713.8
2018-Feb-13 19:30N 31°15' E 122°01'714.4
2018-Feb-13 19:00N 31°16' E 121°53'714.0
2018-Feb-13 18:30N 31°18' E 121°45'6 0.4
2018-Feb-13 01:57N 31°21' E 121°39'7 8.8
2018-Feb-13 01:06N 31°16' E 121°45'412.5
2018-Feb-13 00:48N 31°13' E 121°48'512.6
2018-Feb-13 00:25N 31°10' E 121°52'512.8
2018-Feb-13 00:00N 31°07' E 121°57'714.0
2018-Feb-12 23:30N 31°04' E 122°05'713.3
2018-Feb-12 23:00N 31°03' E 122°12'4 7.2
2018-Feb-12 22:30N 31°03' E 122°17'4 8.8
2018-Feb-12 22:01N 31°02' E 122°21'611.0
2018-Feb-12 21:29N 31°01' E 122°28'511.2
2018-Feb-12 21:00N 30°60' E 122°34'66813.5
2018-Feb-10 19:36N 33°17' E 135°26'  

Dump ship's entire track history